createdAt,value
2019-01-06T00:02:55.733Z,0
2019-01-06T00:06:01.778Z,0
2019-01-06T00:09:07.790Z,0
2019-01-06T00:12:13.666Z,0
2019-01-06T00:15:19.658Z,0
2019-01-06T00:18:25.614Z,0
2019-01-06T00:21:31.674Z,0
2019-01-06T00:24:37.635Z,0
2019-01-06T00:27:43.508Z,0
2019-01-06T00:30:49.557Z,0
2019-01-06T00:33:55.530Z,0
2019-01-06T00:37:01.479Z,0
2019-01-06T00:40:07.550Z,0
2019-01-06T00:43:13.422Z,0
2019-01-06T00:46:19.352Z,0
2019-01-06T00:49:25.357Z,0
2019-01-06T00:52:31.476Z,0
2019-01-06T00:55:37.417Z,0
2019-01-06T00:58:43.322Z,0
2019-01-06T01:01:49.261Z,0
2019-01-06T01:04:55.137Z,0
2019-01-06T01:08:01.072Z,0
2019-01-06T01:11:07.032Z,0
2019-01-06T01:14:13.003Z,0
2019-01-06T01:17:18.908Z,0
2019-01-06T01:20:24.993Z,0
2019-01-06T01:23:30.973Z,0
2019-01-06T01:26:36.930Z,0
2019-01-06T01:29:42.887Z,0
2019-01-06T01:32:48.853Z,0
2019-01-06T01:35:54.922Z,0
2019-01-06T01:39:00.807Z,0
2019-01-06T01:42:07.023Z,0
2019-01-06T01:45:12.998Z,0
2019-01-06T01:48:18.871Z,0
2019-01-06T01:51:24.811Z,0
2019-01-06T01:54:30.690Z,0
2019-01-06T01:57:36.730Z,0
2019-01-06T02:00:42.693Z,0
2019-01-06T02:03:48.644Z,0
2019-01-06T02:06:54.604Z,0
2019-01-06T02:10:00.480Z,0
2019-01-06T02:13:06.420Z,0
2019-01-06T02:16:15.146Z,0
2019-01-06T02:19:21.103Z,0
2019-01-06T02:22:27.371Z,0
2019-01-06T02:25:33.332Z,0
2019-01-06T02:28:39.240Z,0
2019-01-06T02:31:45.253Z,0
2019-01-06T02:34:51.189Z,0
2019-01-06T02:37:57.251Z,0
2019-01-06T02:41:03.235Z,0
2019-01-06T02:44:09.123Z,0
2019-01-06T02:47:17.938Z,0
2019-01-06T02:50:23.826Z,0
2019-01-06T02:53:29.951Z,0
2019-01-06T02:56:35.824Z,0
2019-01-06T02:59:41.883Z,0
2019-01-06T03:02:47.897Z,0
2019-01-06T03:05:53.874Z,0
2019-01-06T03:08:59.834Z,0
2019-01-06T03:12:05.794Z,0
2019-01-06T03:15:11.752Z,0
2019-01-06T03:18:18.003Z,0
2019-01-06T03:21:23.985Z,0
2019-01-06T03:24:29.925Z,0
2019-01-06T03:27:35.909Z,0
2019-01-06T03:30:42.065Z,0
2019-01-06T03:33:47.934Z,0
2019-01-06T03:36:53.904Z,0
2019-01-06T03:39:59.799Z,0
2019-01-06T03:43:05.702Z,0
2019-01-06T03:46:11.645Z,0
2019-01-06T03:49:17.632Z,0
2019-01-06T03:52:26.649Z,0
2019-01-06T03:55:32.635Z,0
2019-01-06T03:58:38.674Z,0
2019-01-06T04:01:44.736Z,0
2019-01-06T04:04:50.698Z,0
2019-01-06T04:07:56.658Z,0
2019-01-06T04:11:02.698Z,0
2019-01-06T04:14:08.750Z,0
2019-01-06T04:17:14.913Z,0
2019-01-06T04:20:21.210Z,0
2019-01-06T04:23:27.083Z,0
2019-01-06T04:26:32.982Z,0
2019-01-06T04:29:39.080Z,0
2019-01-06T04:32:44.953Z,0
2019-01-06T04:35:50.897Z,0
2019-01-06T04:38:56.807Z,0
2019-01-06T04:42:02.888Z,0
2019-01-06T04:45:08.775Z,0
2019-01-06T04:48:14.737Z,0
2019-01-06T04:51:20.765Z,0
2019-01-06T04:54:26.940Z,0
2019-01-06T04:57:32.932Z,0
2019-01-06T05:00:38.884Z,0
2019-01-06T05:03:44.953Z,0
2019-01-06T05:06:50.912Z,0
2019-01-06T05:09:56.863Z,0
2019-01-06T05:13:02.829Z,0
2019-01-06T05:16:08.780Z,0
2019-01-06T05:19:14.751Z,0
2019-01-06T05:22:20.633Z,0
2019-01-06T05:25:26.684Z,0
2019-01-06T05:28:32.721Z,0
2019-01-06T05:31:38.783Z,0
2019-01-06T05:34:44.743Z,0
2019-01-06T05:37:50.618Z,0
2019-01-06T05:40:56.662Z,0
2019-01-06T05:44:02.606Z,0
2019-01-06T05:47:08.660Z,0
2019-01-06T05:50:14.545Z,0.1
2019-01-06T05:53:20.500Z,0.1
2019-01-06T05:56:26.460Z,0.2
2019-01-06T05:59:32.425Z,0.3
2019-01-06T06:02:38.486Z,0.3
2019-01-06T06:05:44.411Z,0.3
2019-01-06T06:08:50.400Z,0.4
2019-01-06T06:11:56.274Z,0.6
2019-01-06T06:15:02.431Z,0.6
2019-01-06T06:18:08.790Z,0.7
2019-01-06T06:21:14.860Z,0.9
2019-01-06T06:24:20.814Z,0.9
2019-01-06T06:27:26.775Z,1.1
2019-01-06T06:30:34.476Z,1.4
2019-01-06T06:33:40.346Z,1.5
2019-01-06T06:36:46.289Z,1.7
2019-01-06T06:39:52.449Z,1.8
2019-01-06T06:42:58.324Z,2.2
2019-01-06T06:46:04.435Z,2.1
2019-01-06T06:49:10.326Z,2.6
2019-01-06T06:52:16.289Z,2.9
2019-01-06T06:55:22.457Z,3.1
2019-01-06T06:58:28.325Z,2.8
2019-01-06T07:01:34.268Z,3.2
2019-01-06T07:04:40.231Z,3.6
2019-01-06T07:07:46.189Z,3.6
2019-01-06T07:10:52.082Z,3.6
2019-01-06T07:14:00.663Z,3.6
2019-01-06T07:17:06.628Z,3.8
2019-01-06T07:20:12.499Z,3.8
2019-01-06T07:23:18.457Z,4.5
2019-01-06T07:26:24.521Z,5
2019-01-06T07:29:30.648Z,5.6
2019-01-06T07:32:39.459Z,6.1
2019-01-06T07:35:48.130Z,6.5
2019-01-06T07:38:54.091Z,7.2
2019-01-06T07:42:00.260Z,9.5
2019-01-06T07:45:06.206Z,10.6
2019-01-06T07:48:12.118Z,14.9
2019-01-06T07:51:18.123Z,15.7
2019-01-06T07:54:24.061Z,18.5
2019-01-06T07:57:30.037Z,16.9
2019-01-06T08:00:35.948Z,19.9
2019-01-06T08:03:41.859Z,17.4
2019-01-06T08:06:47.809Z,10.6
2019-01-06T08:09:53.684Z,7.9
2019-01-06T08:12:59.634Z,8.3
2019-01-06T08:16:05.698Z,9.4
2019-01-06T08:19:11.745Z,8.3
2019-01-06T08:22:17.819Z,6.7
2019-01-06T08:25:23.689Z,5.5
2019-01-06T08:28:29.734Z,5.4
2019-01-06T08:31:35.699Z,5.4
2019-01-06T08:34:41.814Z,5.5
2019-01-06T08:37:47.727Z,5.5
2019-01-06T08:40:53.638Z,5.4
2019-01-06T08:43:59.617Z,7.4
2019-01-06T08:47:05.559Z,9.2
2019-01-06T08:50:11.552Z,11
2019-01-06T08:53:17.426Z,11.7
2019-01-06T08:56:23.364Z,11.6
2019-01-06T08:59:29.327Z,12.2
2019-01-06T09:02:35.201Z,13.2
2019-01-06T09:05:41.245Z,14.3
2019-01-06T09:08:47.717Z,16.3
2019-01-06T09:11:53.776Z,17
2019-01-06T09:14:59.651Z,15.8
2019-01-06T09:18:07.446Z,15.1
2019-01-06T09:21:13.397Z,14.1
2019-01-06T09:24:19.459Z,13.8
2019-01-06T09:27:25.521Z,13.1
2019-01-06T09:30:31.597Z,12.9
2019-01-06T09:33:37.457Z,12
2019-01-06T09:36:43.420Z,11.9
2019-01-06T09:39:49.360Z,11.8
2019-01-06T09:42:55.295Z,10.6
2019-01-06T09:46:01.275Z,9.7
2019-01-06T09:49:07.159Z,8.6
2019-01-06T09:52:13.109Z,7.7
2019-01-06T09:55:20.180Z,7.7
2019-01-06T09:58:26.061Z,7.5
2019-01-06T10:01:32.097Z,6.9
2019-01-06T10:04:38.370Z,6.8
2019-01-06T10:07:44.350Z,8.1
2019-01-06T10:10:50.287Z,8.9
2019-01-06T10:13:56.169Z,9.5
2019-01-06T10:17:02.107Z,10.1
2019-01-06T10:20:08.082Z,9.9
2019-01-06T10:23:13.940Z,10
2019-01-06T10:26:19.875Z,10.5
2019-01-06T10:29:25.834Z,11.4
2019-01-06T10:32:31.896Z,12.8
2019-01-06T10:35:39.801Z,13.1
2019-01-06T10:38:45.762Z,13.4
2019-01-06T10:41:51.722Z,13.1
2019-01-06T10:44:57.606Z,13.1
2019-01-06T10:48:03.666Z,13
2019-01-06T10:51:09.599Z,13
2019-01-06T10:54:15.582Z,13.4
2019-01-06T10:57:21.517Z,13.1
2019-01-06T11:00:27.477Z,12.4
2019-01-06T11:03:33.521Z,12.1
2019-01-06T11:06:39.416Z,11.8
2019-01-06T11:09:45.471Z,12
2019-01-06T11:12:51.330Z,12.5
2019-01-06T11:15:57.278Z,12.4
2019-01-06T11:19:03.152Z,11.8
2019-01-06T11:22:09.216Z,11.2
2019-01-06T11:25:15.255Z,10.6
2019-01-06T11:28:21.142Z,10.5
2019-01-06T11:31:27.183Z,9.9
2019-01-06T11:34:33.063Z,9.5
2019-01-06T11:37:38.990Z,9.2
2019-01-06T11:40:44.882Z,9.2
2019-01-06T11:43:50.815Z,8.7
2019-01-06T11:46:56.764Z,9.4
2019-01-06T11:50:03.022Z,10
2019-01-06T11:53:08.886Z,9.9
2019-01-06T11:56:14.859Z,9.2
2019-01-06T11:59:20.721Z,8.8
2019-01-06T12:02:26.664Z,8.2
2019-01-06T12:05:32.606Z,7.8
2019-01-06T12:08:44.169Z,7.7
2019-01-06T12:11:50.175Z,7
2019-01-06T12:14:56.048Z,6.3
2019-01-06T12:18:01.991Z,5.6
2019-01-06T12:21:07.864Z,5.4
2019-01-06T12:24:13.808Z,5.3
2019-01-06T12:27:19.681Z,3.2
2019-01-06T12:30:25.632Z,3.2
2019-01-06T12:33:31.591Z,2.9
2019-01-06T12:36:37.458Z,2.7
2019-01-06T12:39:43.416Z,2.6
2019-01-06T12:42:49.315Z,2.4
2019-01-06T12:45:55.224Z,2.6
2019-01-06T12:49:01.093Z,2.7
2019-01-06T12:52:07.032Z,2.5
2019-01-06T12:55:15.724Z,2.7
2019-01-06T12:58:21.726Z,2.5
2019-01-06T13:01:27.681Z,2.4
2019-01-06T13:04:33.547Z,2.9
2019-01-06T13:07:39.493Z,5
2019-01-06T13:10:45.459Z,7.1
2019-01-06T13:13:51.401Z,9
2019-01-06T13:16:57.375Z,10.2
2019-01-06T13:20:03.336Z,10.1
2019-01-06T13:23:09.210Z,10.3
2019-01-06T13:26:15.147Z,11.1
2019-01-06T13:29:21.221Z,10.9
2019-01-06T13:32:27.277Z,9.8
2019-01-06T13:35:33.233Z,8.2
2019-01-06T13:38:39.197Z,6.8
2019-01-06T13:41:47.717Z,6
2019-01-06T13:44:53.676Z,5.4
2019-01-06T13:48:00.248Z,4.9
2019-01-06T13:51:06.211Z,4.7
2019-01-06T13:54:12.268Z,4.6
2019-01-06T13:57:18.228Z,4.5
2019-01-06T14:00:24.188Z,4.2
2019-01-06T14:03:30.160Z,90.7
2019-01-06T14:06:36.213Z,118.1
2019-01-06T14:09:42.078Z,126
2019-01-06T14:12:48.128Z,128.2
2019-01-06T14:15:53.996Z,129.6
2019-01-06T14:19:00.061Z,133.9
2019-01-06T14:22:05.984Z,133.9
2019-01-06T14:25:12.075Z,133.9
2019-01-06T14:28:18.039Z,133.9
2019-01-06T14:31:24.085Z,133.9
2019-01-06T14:34:30.054Z,134.6
2019-01-06T14:37:38.853Z,134.6
2019-01-06T14:40:44.842Z,134.6
2019-01-06T14:43:50.797Z,118.8
2019-01-06T14:46:56.664Z,133.9
2019-01-06T14:50:02.712Z,133.9
2019-01-06T14:53:08.754Z,134.6
2019-01-06T14:56:14.731Z,134.6
2019-01-06T14:59:20.607Z,134.6
2019-01-06T15:02:26.655Z,134.6
2019-01-06T15:05:32.682Z,134.6
2019-01-06T15:08:38.680Z,134.6
2019-01-06T15:11:46.734Z,133.9
2019-01-06T15:14:52.711Z,134.6
2019-01-06T15:17:58.707Z,134.6
2019-01-06T15:21:04.582Z,133.9
2019-01-06T15:24:10.521Z,133.9
2019-01-06T15:27:16.480Z,133.9
2019-01-06T15:30:22.355Z,137.5
2019-01-06T15:33:28.295Z,137.5
2019-01-06T15:36:34.260Z,478.1
2019-01-06T15:39:40.246Z,469.4
2019-01-06T15:42:46.348Z,466.6
2019-01-06T15:45:52.240Z,650.9
2019-01-06T15:48:58.299Z,483.8
2019-01-06T15:52:04.357Z,475.2
2019-01-06T15:55:10.227Z,472.3
2019-01-06T15:58:18.948Z,472.3
2019-01-06T16:01:24.822Z,472.3
2019-01-06T16:04:31.152Z,469.4
2019-01-06T16:07:37.123Z,469.4
2019-01-06T16:10:46.059Z,440.6
2019-01-06T16:13:51.933Z,437.8
2019-01-06T16:16:57.873Z,440.6
2019-01-06T16:20:03.846Z,437.8
2019-01-06T16:23:09.978Z,440.6
2019-01-06T16:26:15.802Z,0
2019-01-06T16:29:21.730Z,0
2019-01-06T16:32:27.688Z,0
2019-01-06T16:35:33.621Z,0
2019-01-06T16:38:39.650Z,0
2019-01-06T16:41:45.460Z,0
2019-01-06T16:44:51.481Z,0
2019-01-06T16:47:57.563Z,0
2019-01-06T16:51:03.539Z,0
2019-01-06T16:54:09.588Z,0
2019-01-06T16:57:15.654Z,0
2019-01-06T17:00:21.710Z,0
2019-01-06T17:03:27.663Z,0
2019-01-06T17:06:33.640Z,0
2019-01-06T17:09:39.816Z,0
2019-01-06T17:12:45.687Z,0
2019-01-06T17:15:51.610Z,0
2019-01-06T17:18:57.501Z,0
2019-01-06T17:22:03.421Z,0
2019-01-06T17:25:09.384Z,0
2019-01-06T17:28:15.344Z,0
2019-01-06T17:31:21.305Z,0
2019-01-06T17:34:27.181Z,0
2019-01-06T17:37:41.212Z,0
2019-01-06T17:40:47.087Z,0
2019-01-06T17:43:53.130Z,0
2019-01-06T17:46:59.003Z,0
2019-01-06T17:50:04.946Z,0
2019-01-06T17:53:10.899Z,0
2019-01-06T17:56:16.778Z,0
2019-01-06T17:59:22.822Z,0
2019-01-06T18:02:28.779Z,0
2019-01-06T18:05:34.742Z,0
2019-01-06T18:08:40.610Z,0
2019-01-06T18:11:48.508Z,0
2019-01-06T18:14:54.380Z,0
2019-01-06T18:18:00.329Z,0
2019-01-06T18:21:06.336Z,0
2019-01-06T18:24:12.252Z,0
2019-01-06T18:27:18.195Z,0
2019-01-06T18:30:26.208Z,0
2019-01-06T18:33:32.161Z,0
2019-01-06T18:36:38.240Z,0
2019-01-06T18:39:44.190Z,0
2019-01-06T18:42:50.105Z,0
2019-01-06T18:45:56.100Z,0
2019-01-06T18:49:02.170Z,0
2019-01-06T18:52:08.229Z,0
2019-01-06T18:55:14.194Z,0
2019-01-06T18:58:20.146Z,0
2019-01-06T19:01:26.103Z,0
2019-01-06T19:04:32.192Z,0
2019-01-06T19:07:38.244Z,0
2019-01-06T19:10:44.104Z,0
2019-01-06T19:13:50.051Z,0
2019-01-06T19:16:56.015Z,0
2019-01-06T19:20:02.149Z,0
2019-01-06T19:23:08.028Z,0
2019-01-06T19:26:22.181Z,0
2019-01-06T19:29:28.167Z,0
2019-01-06T19:32:34.151Z,0
2019-01-06T19:35:40.487Z,0
2019-01-06T19:38:46.357Z,0
2019-01-06T19:41:52.287Z,0
2019-01-06T19:44:58.256Z,0
2019-01-06T19:48:04.250Z,0
2019-01-06T19:51:10.175Z,0
2019-01-06T19:54:16.243Z,0
2019-01-06T19:57:22.101Z,0
2019-01-06T20:00:28.144Z,0
2019-01-06T20:03:34.018Z,0
2019-01-06T20:06:39.958Z,0
2019-01-06T20:09:46.122Z,0
2019-01-06T20:12:52.082Z,0
2019-01-06T20:15:58.131Z,0
2019-01-06T20:19:04.107Z,0
2019-01-06T20:22:10.064Z,0
2019-01-06T20:25:16.128Z,0
2019-01-06T20:28:22.088Z,0
2019-01-06T20:31:28.045Z,0
2019-01-06T20:34:33.930Z,0
2019-01-06T20:37:39.861Z,0
2019-01-06T20:40:45.928Z,0
2019-01-06T20:43:51.809Z,0
2019-01-06T20:46:57.740Z,0
2019-01-06T20:50:03.699Z,0
2019-01-06T20:53:09.659Z,0
2019-01-06T20:56:15.627Z,0
2019-01-06T20:59:21.484Z,0
2019-01-06T21:02:27.441Z,0
2019-01-06T21:05:33.403Z,0
2019-01-06T21:08:39.277Z,0
2019-01-06T21:11:45.321Z,0
2019-01-06T21:14:51.275Z,0
2019-01-06T21:17:57.137Z,0
2019-01-06T21:21:03.092Z,0
2019-01-06T21:24:09.043Z,0
2019-01-06T21:27:14.913Z,0
2019-01-06T21:30:20.958Z,0
2019-01-06T21:33:26.930Z,0
2019-01-06T21:36:33.064Z,0
2019-01-06T21:39:39.144Z,0
2019-01-06T21:42:45.088Z,0
2019-01-06T21:45:51.181Z,0
2019-01-06T21:48:57.045Z,0
2019-01-06T21:52:02.987Z,0
2019-01-06T21:55:09.063Z,0
2019-01-06T21:58:15.018Z,0
2019-01-06T22:01:20.958Z,0
2019-01-06T22:04:26.945Z,0
2019-01-06T22:07:32.997Z,0
2019-01-06T22:10:38.866Z,0
2019-01-06T22:13:44.820Z,0
2019-01-06T22:16:50.864Z,0
2019-01-06T22:19:56.733Z,0
2019-01-06T22:23:02.696Z,0
2019-01-06T22:26:08.556Z,0
2019-01-06T22:29:14.615Z,0
2019-01-06T22:32:20.595Z,0
2019-01-06T22:35:26.625Z,0
2019-01-06T22:38:34.257Z,0
2019-01-06T22:41:40.294Z,0
2019-01-06T22:44:46.433Z,0
2019-01-06T22:47:52.608Z,0
2019-01-06T22:50:58.480Z,0
2019-01-06T22:54:04.431Z,0
2019-01-06T22:57:10.427Z,0
2019-01-06T23:00:16.346Z,0
2019-01-06T23:03:22.268Z,0
2019-01-06T23:06:28.267Z,0
2019-01-06T23:09:34.222Z,0
2019-01-06T23:12:40.236Z,0
2019-01-06T23:15:49.129Z,0
2019-01-06T23:18:55.085Z,0
2019-01-06T23:22:01.037Z,0
2019-01-06T23:25:06.991Z,0
2019-01-06T23:28:12.948Z,0
2019-01-06T23:31:19.011Z,0
2019-01-06T23:34:24.975Z,0
2019-01-06T23:37:30.883Z,0
2019-01-06T23:40:36.894Z,0
2019-01-06T23:43:42.869Z,0
2019-01-06T23:46:48.829Z,0
2019-01-06T23:49:54.689Z,0
2019-01-06T23:53:00.744Z,0
2019-01-06T23:56:06.798Z,0
2019-01-06T23:59:12.748Z,0
